sensor_id;sensor_type;location;lat;lon;timestamp;pressure;altitude;pressure_sealevel;temperature;humidity
4326;BME280;58429;49.826;10.880;2023-10-09T00:00:28;99284;;;12.08;84.63
4326;BME280;58429;49.826;10.880;2023-10-09T00:01:28;99280;;;12.11;84.6
4326;BME280;58429;49.826;10.880;2023-10-09T00:02:28;99282;;;12.1;84.6
4326;BME280;58429;49.826;10.880;2023-10-09T00:03:28;99281;;;12.09;84.53
4326;BME280;58429;49.826;10.880;2023-10-09T00:04:28;99280;;;12.09;84.54
4326;BME280;58429;49.826;10.880;2023-10-09T00:05:28;99280;;;12.06;84.58
4326;BME280;58429;49.826;10.880;2023-10-09T00:06:28;99276;;;12.03;84.55
4326;BME280;58429;49.826;10.880;2023-10-09T00:07:28;99271;;;12.04;84.59
4326;BME280;58429;49.826;10.880;2023-10-09T00:08:28;99271;;;12.06;84.66
4326;BME280;58429;49.826;10.880;2023-10-09T00:09:28;99268;;;12.02;84.72
4326;BME280;58429;49.826;10.880;2023-10-09T00:10:28;99266;;;12.02;84.79
4326;BME280;58429;49.826;10.880;2023-10-09T00:11:28;99255;;;11.97;84.94
4326;BME280;58429;49.826;10.880;2023-10-09T00:12:28;99251;;;12.03;85.02
4326;BME280;58429;49.826;10.880;2023-10-09T00:13:28;99258;;;11.99;85.05
4326;BME280;58429;49.826;10.880;2023-10-09T00:14:29;99253;;;11.98;85.11
4326;BME280;58429;49.826;10.880;2023-10-09T00:15:28;99242;;;11.97;85.1
4326;BME280;58429;49.826;10.880;2023-10-09T00:16:28;99251;;;11.98;85.15
4326;BME280;58429;49.826;10.880;2023-10-09T00:17:28;99246;;;11.98;85.17
4326;BME280;58429;49.826;10.880;2023-10-09T00:18:28;99239;;;11.98;85.2
4326;BME280;58429;49.826;10.880;2023-10-09T00:19:28;99236;;;11.99;85.21
4326;BME280;58429;49.826;10.880;2023-10-09T00:20:28;99233;;;12.01;85.22
4326;BME280;58429;49.826;10.880;2023-10-09T00:21:28;99237;;;11.99;85.23
4326;BME280;58429;49.826;10.880;2023-10-09T00:22:28;99237;;;12;85.27
4326;BME280;58429;49.826;10.880;2023-10-09T00:23:28;99228;;;11.98;85.27
4326;BME280;58429;49.826;10.880;2023-10-09T00:24:28;99232;;;12.01;85.35
4326;BME280;58429;49.826;10.880;2023-10-09T00:25:28;99230;;;11.98;85.39
4326;BME280;58429;49.826;10.880;2023-10-09T00:26:28;99230;;;12.01;85.54
4326;BME280;58429;49.826;10.880;2023-10-09T00:27:28;99218;;;12.01;85.56
4326;BME280;58429;49.826;10.880;2023-10-09T00:28:28;99220;;;12.03;85.61
4326;BME280;58429;49.826;10.880;2023-10-09T00:29:28;99227;;;12;85.67
4326;BME280;58429;49.826;10.880;2023-10-09T00:30:28;99221;;;12.01;85.67
4326;BME280;58429;49.826;10.880;2023-10-09T00:31:28;99218;;;11.97;85.72
4326;BME280;58429;49.826;10.880;2023-10-09T00:32:28;99220;;;12.01;86
4326;BME280;58429;49.826;10.880;2023-10-09T00:33:28;99216;;;11.97;85.9
4326;BME280;58429;49.826;10.880;2023-10-09T00:34:28;99209;;;11.98;85.9
4326;BME280;58429;49.826;10.880;2023-10-09T00:35:28;99211;;;12.01;85.96
4326;BME280;58429;49.826;10.880;2023-10-09T00:36:28;99212;;;11.99;85.95
4326;BME280;58429;49.826;10.880;2023-10-09T00:37:28;99208;;;11.98;85.99
4326;BME280;58429;49.826;10.880;2023-10-09T00:38:28;99216;;;12.02;86
4326;BME280;58429;49.826;10.880;2023-10-09T00:39:28;99211;;;12;86.02
4326;BME280;58429;49.826;10.880;2023-10-09T00:40:30;99210;;;12.01;86.07
4326;BME280;58429;49.826;10.880;2023-10-09T00:41:28;99207;;;12.04;86.12
4326;BME280;58429;49.826;10.880;2023-10-09T00:42:28;99214;;;12.02;86.12
4326;BME280;58429;49.826;10.880;2023-10-09T00:43:28;99206;;;12.02;86.16
4326;BME280;58429;49.826;10.880;2023-10-09T00:44:28;99208;;;12.03;86.24
4326;BME280;58429;49.826;10.880;2023-10-09T00:45:28;99198;;;12.07;86.31
4326;BME280;58429;49.826;10.880;2023-10-09T00:46:28;99204;;;12.05;86.35
4326;BME280;58429;49.826;10.880;2023-10-09T00:47:28;99202;;;12.07;86.45
4326;BME280;58429;49.826;10.880;2023-10-09T00:48:28;99200;;;12.09;86.58
4326;BME280;58429;49.826;10.880;2023-10-09T00:49:28;99204;;;12.09;86.73
4326;BME280;58429;49.826;10.880;2023-10-09T00:50:28;99197;;;12.1;86.78
4326;BME280;58429;49.826;10.880;2023-10-09T00:51:28;99201;;;12.1;86.74
4326;BME280;58429;49.826;10.880;2023-10-09T00:52:29;99191;;;12.1;86.78
4326;BME280;58429;49.826;10.880;2023-10-09T00:53:28;99195;;;12.14;86.85
4326;BME280;58429;49.826;10.880;2023-10-09T00:54:28;99198;;;12.13;86.81
4326;BME280;58429;49.826;10.880;2023-10-09T00:55:30;99196;;;12.06;86.79
4326;BME280;58429;49.826;10.880;2023-10-09T00:56:28;99197;;;12.05;86.75
4326;BME280;58429;49.826;10.880;2023-10-09T00:57:28;99191;;;12.05;86.77
4326;BME280;58429;49.826;10.880;2023-10-09T00:58:28;99188;;;12.04;86.72
4326;BME280;58429;49.826;10.880;2023-10-09T00:59:28;99191;;;12.03;86.64
4326;BME280;58429;49.826;10.880;2023-10-09T01:00:28;99196;;;12.03;86.58
4326;BME280;58429;49.826;10.880;2023-10-09T01:01:28;99186;;;12;86.48
4326;BME280;58429;49.826;10.880;2023-10-09T01:02:28;99182;;;12;86.5
4326;BME280;58429;49.826;10.880;2023-10-09T01:03:28;99181;;;11.95;86.46
4326;BME280;58429;49.826;10.880;2023-10-09T01:04:28;99187;;;11.97;86.41
4326;BME280;58429;49.826;10.880;2023-10-09T01:05:28;99183;;;11.95;86.39
4326;BME280;58429;49.826;10.880;2023-10-09T01:06:28;99178;;;11.9;86.43
4326;BME280;58429;49.826;10.880;2023-10-09T01:07:28;99180;;;11.89;86.46
4326;BME280;58429;49.826;10.880;2023-10-09T01:08:28;99177;;;11.89;86.45
4326;BME280;58429;49.826;10.880;2023-10-09T01:09:28;99179;;;11.9;86.39
4326;BME280;58429;49.826;10.880;2023-10-09T01:10:28;99179;;;11.91;86.38
4326;BME280;58429;49.826;10.880;2023-10-09T01:11:28;99180;;;11.91;86.36
4326;BME280;58429;49.826;10.880;2023-10-09T01:12:28;99176;;;11.91;86.33
4326;BME280;58429;49.826;10.880;2023-10-09T01:13:28;99178;;;11.95;86.34
4326;BME280;58429;49.826;10.880;2023-10-09T01:14:28;99168;;;11.93;86.34
4326;BME280;58429;49.826;10.880;2023-10-09T01:15:28;99168;;;11.95;86.31
4326;BME280;58429;49.826;10.880;2023-10-09T01:16:28;99171;;;11.95;86.28
4326;BME280;58429;49.826;10.880;2023-10-09T01:17:28;99167;;;11.94;86.3
4326;BME280;58429;49.826;10.880;2023-10-09T01:18:28;99161;;;11.92;86.25
4326;BME280;58429;49.826;10.880;2023-10-09T01:19:28;99157;;;11.92;86.28
4326;BME280;58429;49.826;10.880;2023-10-09T01:20:28;99157;;;11.94;86.27
4326;BME280;58429;49.826;10.880;2023-10-09T01:21:28;99152;;;11.95;86.28
4326;BME280;58429;49.826;10.880;2023-10-09T01:22:28;99155;;;11.94;86.28
4326;BME280;58429;49.826;10.880;2023-10-09T01:23:28;99155;;;11.94;86.31
4326;BME280;58429;49.826;10.880;2023-10-09T01:24:28;99159;;;11.95;86.36
4326;BME280;58429;49.826;10.880;2023-10-09T01:25:28;99153;;;11.97;86.38
4326;BME280;58429;49.826;10.880;2023-10-09T01:26:28;99158;;;11.96;86.41
4326;BME280;58429;49.826;10.880;2023-10-09T01:27:28;99154;;;11.97;86.37
4326;BME280;58429;49.826;10.880;2023-10-09T01:28:28;99147;;;11.95;86.39
4326;BME280;58429;49.826;10.880;2023-10-09T01:29:28;99147;;;11.98;86.37
4326;BME280;58429;49.826;10.880;2023-10-09T01:30:28;99148;;;11.95;86.37
4326;BME280;58429;49.826;10.880;2023-10-09T01:31:28;99147;;;11.94;86.32
4326;BME280;58429;49.826;10.880;2023-10-09T01:32:28;99146;;;11.97;86.39
4326;BME280;58429;49.826;10.880;2023-10-09T01:33:28;99156;;;11.96;86.35
4326;BME280;58429;49.826;10.880;2023-10-09T01:34:28;99153;;;11.95;86.4
4326;BME280;58429;49.826;10.880;2023-10-09T01:35:28;99147;;;11.98;86.48
4326;BME280;58429;49.826;10.880;2023-10-09T01:36:28;99146;;;11.96;86.47
4326;BME280;58429;49.826;10.880;2023-10-09T01:37:28;99146;;;11.97;86.51
4326;BME280;58429;49.826;10.880;2023-10-09T01:38:28;99140;;;11.99;86.66
4326;BME280;58429;49.826;10.880;2023-10-09T01:39:28;99134;;;12;86.8
4326;BME280;58429;49.826;10.880;2023-10-09T01:40:28;99131;;;12.03;86.86
4326;BME280;58429;49.826;10.880;2023-10-09T01:41:28;99141;;;11.98;86.81
4326;BME280;58429;49.826;10.880;2023-10-09T01:42:28;99134;;;12.01;86.78
4326;BME280;58429;49.826;10.880;2023-10-09T01:43:28;99135;;;12.03;86.72
4326;BME280;58429;49.826;10.880;2023-10-09T01:44:28;99134;;;12;86.71
4326;BME280;58429;49.826;10.880;2023-10-09T01:45:29;99125;;;12.01;86.63
4326;BME280;58429;49.826;10.880;2023-10-09T01:46:28;99123;;;12;86.62
4326;BME280;58429;49.826;10.880;2023-10-09T01:47:28;99128;;;11.99;86.64
4326;BME280;58429;49.826;10.880;2023-10-09T01:48:29;99119;;;11.96;86.67
4326;BME280;58429;49.826;10.880;2023-10-09T01:49:29;99125;;;11.94;86.67
4326;BME280;58429;49.826;10.880;2023-10-09T01:50:29;99119;;;11.94;86.63
4326;BME280;58429;49.826;10.880;2023-10-09T01:51:28;99120;;;11.97;86.57
4326;BME280;58429;49.826;10.880;2023-10-09T01:52:28;99116;;;11.98;86.59
4326;BME280;58429;49.826;10.880;2023-10-09T01:53:29;99116;;;11.95;86.51
4326;BME280;58429;49.826;10.880;2023-10-09T01:54:28;99118;;;11.93;86.54
4326;BME280;58429;49.826;10.880;2023-10-09T01:55:29;99113;;;11.9;86.51
4326;BME280;58429;49.826;10.880;2023-10-09T01:56:28;99104;;;11.93;86.5
4326;BME280;58429;49.826;10.880;2023-10-09T01:57:29;99109;;;11.89;86.47
4326;BME280;58429;49.826;10.880;2023-10-09T01:58:29;99106;;;11.91;86.5
4326;BME280;58429;49.826;10.880;2023-10-09T01:59:28;99110;;;11.91;86.45
4326;BME280;58429;49.826;10.880;2023-10-09T02:00:29;99109;;;11.89;86.38
4326;BME280;58429;49.826;10.880;2023-10-09T02:01:29;99108;;;11.93;86.38
4326;BME280;58429;49.826;10.880;2023-10-09T02:02:28;99111;;;11.89;86.37
4326;BME280;58429;49.826;10.880;2023-10-09T02:03:29;99105;;;11.92;86.34
4326;BME280;58429;49.826;10.880;2023-10-09T02:04:29;99100;;;11.91;86.29
4326;BME280;58429;49.826;10.880;2023-10-09T02:14:29;99096;;;11.89;86.28
4326;BME280;58429;49.826;10.880;2023-10-09T02:15:29;99090;;;11.86;86.26
4326;BME280;58429;49.826;10.880;2023-10-09T02:16:28;99100;;;11.87;86.28
4326;BME280;58429;49.826;10.880;2023-10-09T02:17:28;99092;;;11.85;86.33
4326;BME280;58429;49.826;10.880;2023-10-09T02:18:28;99103;;;11.85;86.35
4326;BME280;58429;49.826;10.880;2023-10-09T02:19:29;99110;;;11.86;86.37
4326;BME280;58429;49.826;10.880;2023-10-09T02:20:28;99106;;;11.84;86.35
4326;BME280;58429;49.826;10.880;2023-10-09T02:21:28;99118;;;11.81;86.42
4326;BME280;58429;49.826;10.880;2023-10-09T02:22:28;99114;;;11.8;86.44
4326;BME280;58429;49.826;10.880;2023-10-09T02:23:28;99113;;;11.85;86.51
4326;BME280;58429;49.826;10.880;2023-10-09T02:24:28;99116;;;11.83;86.64
4326;BME280;58429;49.826;10.880;2023-10-09T02:25:28;99116;;;11.85;86.72
4326;BME280;58429;49.826;10.880;2023-10-09T02:26:28;99113;;;11.83;86.72
4326;BME280;58429;49.826;10.880;2023-10-09T02:27:28;99114;;;11.83;86.87
4326;BME280;58429;49.826;10.880;2023-10-09T02:28:28;99118;;;11.82;86.99
4326;BME280;58429;49.826;10.880;2023-10-09T02:29:28;99108;;;11.85;87.1
4326;BME280;58429;49.826;10.880;2023-10-09T02:30:28;99116;;;11.85;87.14
4326;BME280;58429;49.826;10.880;2023-10-09T02:31:28;99120;;;11.84;87.22
4326;BME280;58429;49.826;10.880;2023-10-09T02:32:28;99113;;;11.85;87.48
4326;BME280;58429;49.826;10.880;2023-10-09T02:33:28;99112;;;11.87;87.54
4326;BME280;58429;49.826;10.880;2023-10-09T02:34:28;99109;;;11.87;87.57
4326;BME280;58429;49.826;10.880;2023-10-09T02:35:28;99115;;;11.91;87.64
4326;BME280;58429;49.826;10.880;2023-10-09T02:36:28;99119;;;11.87;87.71
4326;BME280;58429;49.826;10.880;2023-10-09T02:37:28;99116;;;11.88;87.73
4326;BME280;58429;49.826;10.880;2023-10-09T02:38:28;99118;;;11.86;87.65
4326;BME280;58429;49.826;10.880;2023-10-09T02:39:28;99120;;;11.86;87.69
4326;BME280;58429;49.826;10.880;2023-10-09T02:40:28;99111;;;11.88;87.72
4326;BME280;58429;49.826;10.880;2023-10-09T02:41:28;99116;;;11.87;87.77
4326;BME280;58429;49.826;10.880;2023-10-09T02:42:28;99114;;;11.86;87.83
4326;BME280;58429;49.826;10.880;2023-10-09T02:43:29;99111;;;11.88;87.78
4326;BME280;58429;49.826;10.880;2023-10-09T02:44:28;99116;;;11.86;87.75
4326;BME280;58429;49.826;10.880;2023-10-09T02:45:28;99120;;;11.87;87.73
4326;BME280;58429;49.826;10.880;2023-10-09T02:46:29;99116;;;11.87;87.68
4326;BME280;58429;49.826;10.880;2023-10-09T02:47:28;99106;;;11.87;87.65
4326;BME280;58429;49.826;10.880;2023-10-09T02:48:28;99117;;;11.86;87.63
4326;BME280;58429;49.826;10.880;2023-10-09T02:49:28;99116;;;11.88;87.59
4326;BME280;58429;49.826;10.880;2023-10-09T02:50:28;99111;;;11.87;87.53
4326;BME280;58429;49.826;10.880;2023-10-09T02:51:30;99116;;;11.88;87.51
4326;BME280;58429;49.826;10.880;2023-10-09T02:52:28;99113;;;11.89;87.47
4326;BME280;58429;49.826;10.880;2023-10-09T02:53:28;99118;;;11.86;87.5
4326;BME280;58429;49.826;10.880;2023-10-09T02:54:28;99114;;;11.87;87.43
4326;BME280;58429;49.826;10.880;2023-10-09T02:55:28;99114;;;11.87;87.38
4326;BME280;58429;49.826;10.880;2023-10-09T02:56:29;99114;;;11.87;87.34
4326;BME280;58429;49.826;10.880;2023-10-09T02:57:28;99113;;;11.88;87.33
4326;BME280;58429;49.826;10.880;2023-10-09T02:58:29;99112;;;11.87;87.32
4326;BME280;58429;49.826;10.880;2023-10-09T02:59:28;99113;;;11.87;87.31
4326;BME280;58429;49.826;10.880;2023-10-09T03:00:28;99112;;;11.85;87.26
4326;BME280;58429;49.826;10.880;2023-10-09T03:01:28;99112;;;11.85;87.25
4326;BME280;58429;49.826;10.880;2023-10-09T03:02:28;99112;;;11.83;87.19
4326;BME280;58429;49.826;10.880;2023-10-09T03:03:28;99108;;;11.83;87.12
4326;BME280;58429;49.826;10.880;2023-10-09T03:04:28;99112;;;11.84;87.12
4326;BME280;58429;49.826;10.880;2023-10-09T03:05:28;99109;;;11.83;87.1
4326;BME280;58429;49.826;10.880;2023-10-09T03:06:28;99105;;;11.82;87.11
4326;BME280;58429;49.826;10.880;2023-10-09T03:07:29;99108;;;11.85;87.16
4326;BME280;58429;49.826;10.880;2023-10-09T03:08:28;99103;;;11.79;87.17
4326;BME280;58429;49.826;10.880;2023-10-09T03:09:28;99107;;;11.79;87.16
4326;BME280;58429;49.826;10.880;2023-10-09T03:10:29;99101;;;11.78;87.15
4326;BME280;58429;49.826;10.880;2023-10-09T03:11:29;99095;;;11.78;87.16
4326;BME280;58429;49.826;10.880;2023-10-09T03:12:29;99105;;;11.8;87.22
4326;BME280;58429;49.826;10.880;2023-10-09T03:13:29;99099;;;11.81;87.33
4326;BME280;58429;49.826;10.880;2023-10-09T03:14:29;99096;;;11.79;87.36
4326;BME280;58429;49.826;10.880;2023-10-09T03:15:29;99100;;;11.8;87.38
4326;BME280;58429;49.826;10.880;2023-10-09T03:16:28;99101;;;11.82;87.36
4326;BME280;58429;49.826;10.880;2023-10-09T03:17:28;99093;;;11.78;87.31
4326;BME280;58429;49.826;10.880;2023-10-09T03:18:29;99098;;;11.78;87.27
4326;BME280;58429;49.826;10.880;2023-10-09T03:19:29;99093;;;11.75;87.26
4326;BME280;58429;49.826;10.880;2023-10-09T03:20:28;99086;;;11.73;87.35
4326;BME280;58429;49.826;10.880;2023-10-09T03:21:29;99083;;;11.74;87.49
4326;BME280;58429;49.826;10.880;2023-10-09T03:22:28;99079;;;11.71;87.56
4326;BME280;58429;49.826;10.880;2023-10-09T03:23:29;99082;;;11.69;87.53
4326;BME280;58429;49.826;10.880;2023-10-09T03:24:28;99076;;;11.67;87.58
4326;BME280;58429;49.826;10.880;2023-10-09T03:25:29;99072;;;11.64;87.52
4326;BME280;58429;49.826;10.880;2023-10-09T03:26:28;99077;;;11.6;87.45
4326;BME280;58429;49.826;10.880;2023-10-09T03:27:28;99069;;;11.65;87.42
4326;BME280;58429;49.826;10.880;2023-10-09T03:28:29;99078;;;11.61;87.34
4326;BME280;58429;49.826;10.880;2023-10-09T03:29:28;99072;;;11.59;87.33
4326;BME280;58429;49.826;10.880;2023-10-09T03:30:29;99074;;;11.57;87.3
4326;BME280;58429;49.826;10.880;2023-10-09T03:31:29;99075;;;11.54;87.32
4326;BME280;58429;49.826;10.880;2023-10-09T03:32:28;99066;;;11.51;87.34
4326;BME280;58429;49.826;10.880;2023-10-09T03:33:28;99068;;;11.47;87.43
4326;BME280;58429;49.826;10.880;2023-10-09T03:34:29;99067;;;11.46;87.41
4326;BME280;58429;49.826;10.880;2023-10-09T03:35:28;99061;;;11.46;87.37
4326;BME280;58429;49.826;10.880;2023-10-09T03:36:29;99066;;;11.45;87.35
4326;BME280;58429;49.826;10.880;2023-10-09T03:37:28;99061;;;11.39;87.39
4326;BME280;58429;49.826;10.880;2023-10-09T03:38:29;99062;;;11.4;87.57
4326;BME280;58429;49.826;10.880;2023-10-09T03:39:29;99069;;;11.37;87.57
4326;BME280;58429;49.826;10.880;2023-10-09T03:40:29;99067;;;11.37;87.51
4326;BME280;58429;49.826;10.880;2023-10-09T03:41:29;99066;;;11.36;87.52
4326;BME280;58429;49.826;10.880;2023-10-09T03:42:28;99067;;;11.37;87.49
4326;BME280;58429;49.826;10.880;2023-10-09T03:43:29;99064;;;11.38;87.43
4326;BME280;58429;49.826;10.880;2023-10-09T03:44:28;99066;;;11.36;87.26
4326;BME280;58429;49.826;10.880;2023-10-09T03:45:29;99066;;;11.36;87.08
4326;BME280;58429;49.826;10.880;2023-10-09T03:46:29;99064;;;11.36;86.93
4326;BME280;58429;49.826;10.880;2023-10-09T03:47:29;99066;;;11.36;86.84
4326;BME280;58429;49.826;10.880;2023-10-09T03:48:29;99070;;;11.35;86.81
4326;BME280;58429;49.826;10.880;2023-10-09T03:49:28;99075;;;11.36;86.83
4326;BME280;58429;49.826;10.880;2023-10-09T03:50:29;99076;;;11.35;86.88
4326;BME280;58429;49.826;10.880;2023-10-09T03:51:29;99074;;;11.33;86.97
4326;BME280;58429;49.826;10.880;2023-10-09T03:52:29;99062;;;11.33;87.01
4326;BME280;58429;49.826;10.880;2023-10-09T03:53:29;99069;;;11.35;87.05
4326;BME280;58429;49.826;10.880;2023-10-09T03:54:29;99070;;;11.34;87.12
4326;BME280;58429;49.826;10.880;2023-10-09T03:55:29;99065;;;11.36;87.16
4326;BME280;58429;49.826;10.880;2023-10-09T03:56:28;99064;;;11.34;87.24
4326;BME280;58429;49.826;10.880;2023-10-09T03:57:29;99068;;;11.32;87.28
4326;BME280;58429;49.826;10.880;2023-10-09T03:58:29;99063;;;11.34;87.39
4326;BME280;58429;49.826;10.880;2023-10-09T03:59:29;99067;;;11.32;87.41
4326;BME280;58429;49.826;10.880;2023-10-09T04:00:29;99062;;;11.35;87.42
4326;BME280;58429;49.826;10.880;2023-10-09T04:01:29;99072;;;11.32;87.45
4326;BME280;58429;49.826;10.880;2023-10-09T04:02:29;99065;;;11.31;87.52
4326;BME280;58429;49.826;10.880;2023-10-09T04:03:29;99067;;;11.33;87.52
4326;BME280;58429;49.826;10.880;2023-10-09T04:04:29;99067;;;11.32;87.57
4326;BME280;58429;49.826;10.880;2023-10-09T04:05:29;99063;;;11.35;87.64
4326;BME280;58429;49.826;10.880;2023-10-09T04:06:30;99062;;;11.34;87.72
4326;BME280;58429;49.826;10.880;2023-10-09T04:07:29;99062;;;11.35;87.76
4326;BME280;58429;49.826;10.880;2023-10-09T04:08:29;99061;;;11.31;87.77
4326;BME280;58429;49.826;10.880;2023-10-09T04:09:29;99058;;;11.31;87.78
4326;BME280;58429;49.826;10.880;2023-10-09T04:10:29;99057;;;11.3;87.93
4326;BME280;58429;49.826;10.880;2023-10-09T04:11:29;99051;;;11.3;87.93
4326;BME280;58429;49.826;10.880;2023-10-09T04:12:29;99050;;;11.32;87.88
4326;BME280;58429;49.826;10.880;2023-10-09T04:13:30;99049;;;11.32;87.87
4326;BME280;58429;49.826;10.880;2023-10-09T04:14:29;99050;;;11.32;87.85
4326;BME280;58429;49.826;10.880;2023-10-09T04:15:29;99054;;;11.3;87.84
4326;BME280;58429;49.826;10.880;2023-10-09T04:16:29;99050;;;11.32;87.82
4326;BME280;58429;49.826;10.880;2023-10-09T04:17:29;99056;;;11.33;87.85
4326;BME280;58429;49.826;10.880;2023-10-09T04:18:29;99048;;;11.32;87.71
4326;BME280;58429;49.826;10.880;2023-10-09T04:19:29;99052;;;11.27;87.56
4326;BME280;58429;49.826;10.880;2023-10-09T04:20:29;99047;;;11.26;87.46
4326;BME280;58429;49.826;10.880;2023-10-09T04:21:29;99052;;;11.28;87.22
4326;BME280;58429;49.826;10.880;2023-10-09T04:22:29;99048;;;11.24;87.09
4326;BME280;58429;49.826;10.880;2023-10-09T04:23:29;99049;;;11.22;86.94
4326;BME280;58429;49.826;10.880;2023-10-09T04:24:29;99044;;;11.14;86.82
4326;BME280;58429;49.826;10.880;2023-10-09T04:25:29;99045;;;11.13;86.76
4326;BME280;58429;49.826;10.880;2023-10-09T04:26:29;99050;;;11.14;86.72
4326;BME280;58429;49.826;10.880;2023-10-09T04:27:29;99050;;;11.11;86.68
4326;BME280;58429;49.826;10.880;2023-10-09T04:28:29;99047;;;11.07;86.63
4326;BME280;58429;49.826;10.880;2023-10-09T04:29:29;99052;;;11.06;86.63
4326;BME280;58429;49.826;10.880;2023-10-09T04:30:29;99044;;;11.04;86.63
4326;BME280;58429;49.826;10.880;2023-10-09T04:31:29;99052;;;11.04;86.75
4326;BME280;58429;49.826;10.880;2023-10-09T04:32:29;99053;;;11.04;86.77
4326;BME280;58429;49.826;10.880;2023-10-09T04:33:29;99054;;;11.03;86.79
4326;BME280;58429;49.826;10.880;2023-10-09T04:34:29;99047;;;10.99;86.77
4326;BME280;58429;49.826;10.880;2023-10-09T04:35:29;99060;;;11.03;86.79
4326;BME280;58429;49.826;10.880;2023-10-09T04:36:29;99060;;;11.03;86.76
4326;BME280;58429;49.826;10.880;2023-10-09T04:37:29;99057;;;11.06;86.78
4326;BME280;58429;49.826;10.880;2023-10-09T04:38:29;99059;;;11.03;86.73
4326;BME280;58429;49.826;10.880;2023-10-09T04:39:29;99059;;;11.02;86.72
4326;BME280;58429;49.826;10.880;2023-10-09T04:40:29;99055;;;11.01;86.7
4326;BME280;58429;49.826;10.880;2023-10-09T04:41:29;99055;;;11.01;86.65
4326;BME280;58429;49.826;10.880;2023-10-09T04:42:29;99049;;;10.97;86.66
4326;BME280;58429;49.826;10.880;2023-10-09T04:43:29;99050;;;10.9;86.67
4326;BME280;58429;49.826;10.880;2023-10-09T04:44:29;99045;;;10.9;86.72
4326;BME280;58429;49.826;10.880;2023-10-09T04:45:29;99046;;;10.83;86.76
4326;BME280;58429;49.826;10.880;2023-10-09T04:46:29;99048;;;10.83;86.81
4326;BME280;58429;49.826;10.880;2023-10-09T04:47:29;99045;;;10.78;86.92
4326;BME280;58429;49.826;10.880;2023-10-09T04:48:29;99052;;;10.75;86.89
4326;BME280;58429;49.826;10.880;2023-10-09T04:49:29;99044;;;10.77;86.9
4326;BME280;58429;49.826;10.880;2023-10-09T04:50:29;99048;;;10.77;86.89
4326;BME280;58429;49.826;10.880;2023-10-09T04:51:29;99057;;;10.73;86.86
4326;BME280;58429;49.826;10.880;2023-10-09T04:52:29;99055;;;10.76;86.86
4326;BME280;58429;49.826;10.880;2023-10-09T04:53:29;99050;;;10.76;86.84
4326;BME280;58429;49.826;10.880;2023-10-09T04:54:29;99051;;;10.75;86.77
4326;BME280;58429;49.826;10.880;2023-10-09T04:55:29;99053;;;10.76;86.69
4326;BME280;58429;49.826;10.880;2023-10-09T04:56:29;99054;;;10.73;86.56
4326;BME280;58429;49.826;10.880;2023-10-09T04:57:29;99049;;;10.7;86.49
4326;BME280;58429;49.826;10.880;2023-10-09T04:58:29;99053;;;10.68;86.33
4326;BME280;58429;49.826;10.880;2023-10-09T04:59:29;99052;;;10.64;86.16
4326;BME280;58429;49.826;10.880;2023-10-09T05:00:29;99048;;;10.61;86.05
4326;BME280;58429;49.826;10.880;2023-10-09T05:01:29;99050;;;10.61;85.97
4326;BME280;58429;49.826;10.880;2023-10-09T05:02:29;99053;;;10.59;85.9
4326;BME280;58429;49.826;10.880;2023-10-09T05:03:29;99056;;;10.6;85.9
4326;BME280;58429;49.826;10.880;2023-10-09T05:04:29;99043;;;10.6;85.83
4326;BME280;58429;49.826;10.880;2023-10-09T05:05:29;99047;;;10.58;85.72
4326;BME280;58429;49.826;10.880;2023-10-09T05:06:29;99044;;;10.52;85.76
4326;BME280;58429;49.826;10.880;2023-10-09T05:07:29;99044;;;10.55;85.73
4326;BME280;58429;49.826;10.880;2023-10-09T05:08:29;99042;;;10.47;85.73
4326;BME280;58429;49.826;10.880;2023-10-09T05:09:30;99050;;;10.52;85.68
4326;BME280;58429;49.826;10.880;2023-10-09T05:10:29;99053;;;10.46;85.59
4326;BME280;58429;49.826;10.880;2023-10-09T05:11:29;99047;;;10.43;85.5
4326;BME280;58429;49.826;10.880;2023-10-09T05:12:29;99048;;;10.41;85.46
4326;BME280;58429;49.826;10.880;2023-10-09T05:13:29;99044;;;10.41;85.51
4326;BME280;58429;49.826;10.880;2023-10-09T05:14:29;99050;;;10.4;85.51
4326;BME280;58429;49.826;10.880;2023-10-09T05:15:29;99054;;;10.4;85.47
4326;BME280;58429;49.826;10.880;2023-10-09T05:16:29;99049;;;10.36;85.47
4326;BME280;58429;49.826;10.880;2023-10-09T05:17:29;99052;;;10.33;85.51
4326;BME280;58429;49.826;10.880;2023-10-09T05:18:29;99061;;;10.35;85.62
4326;BME280;58429;49.826;10.880;2023-10-09T05:19:29;99055;;;10.33;85.71
4326;BME280;58429;49.826;10.880;2023-10-09T05:20:29;99058;;;10.34;85.91
4326;BME280;58429;49.826;10.880;2023-10-09T05:21:31;99059;;;10.33;86.09
4326;BME280;58429;49.826;10.880;2023-10-09T05:22:29;99056;;;10.35;86.32
4326;BME280;58429;49.826;10.880;2023-10-09T05:23:29;99054;;;10.33;86.46
4326;BME280;58429;49.826;10.880;2023-10-09T05:24:29;99057;;;10.33;86.35
4326;BME280;58429;49.826;10.880;2023-10-09T05:25:29;99053;;;10.3;86.31
4326;BME280;58429;49.826;10.880;2023-10-09T05:26:29;99054;;;10.29;86.4
4326;BME280;58429;49.826;10.880;2023-10-09T05:27:29;99053;;;10.29;86.45
4326;BME280;58429;49.826;10.880;2023-10-09T05:28:29;99053;;;10.26;86.59
4326;BME280;58429;49.826;10.880;2023-10-09T05:29:29;99056;;;10.25;86.69
4326;BME280;58429;49.826;10.880;2023-10-09T05:30:29;99054;;;10.25;86.86
4326;BME280;58429;49.826;10.880;2023-10-09T05:31:29;99049;;;10.27;87.06
4326;BME280;58429;49.826;10.880;2023-10-09T05:32:29;99050;;;10.28;87.45
4326;BME280;58429;49.826;10.880;2023-10-09T05:33:29;99049;;;10.24;87.51
4326;BME280;58429;49.826;10.880;2023-10-09T05:34:29;99044;;;10.24;87.54
4326;BME280;58429;49.826;10.880;2023-10-09T05:35:29;99043;;;10.28;87.77
4326;BME280;58429;49.826;10.880;2023-10-09T05:36:29;99056;;;10.24;87.77
4326;BME280;58429;49.826;10.880;2023-10-09T05:37:29;99055;;;10.25;87.61
4326;BME280;58429;49.826;10.880;2023-10-09T05:38:29;99053;;;10.24;87.54
4326;BME280;58429;49.826;10.880;2023-10-09T05:39:29;99055;;;10.27;87.47
4326;BME280;58429;49.826;10.880;2023-10-09T05:40:29;99054;;;10.27;87.42